Time;durP1;ratioP1;P1;durP2;ratioP2;P2;SDS_P1;SDS_P2;PMS_P1;PMS_P2;Temp;Humidity;BMP_temperature;BMP_pressure;BME280_temperature;BME280_humidity;BME280_pressure;Samples;Min_cycle;Max_cycle;Signal;HPM_P1;HPM_P2
2022/11/06 00:00:05;;;;;;;0.60;0.60;;;10.10;99.90;;;;;;5002230;28;20063;-82
2022/11/06 00:02:30;;;;;;;0.60;0.60;;;10.10;99.90;;;;;;4996374;28;20591;-82
2022/11/06 00:06:46;;;;;;;0.60;0.60;;;10.10;99.90;;;;;;4963053;28;20486;-84
2022/11/06 00:07:46;;;;;;;0.60;0.60;;;10.00;99.90;;;;;;4975363;28;20135;-79
2022/11/06 00:10:13;;;;;;;0.60;0.60;;;9.90;99.90;;;;;;4968815;28;20757;-83
2022/11/06 00:12:39;;;;;;;0.60;0.60;;;9.90;99.90;;;;;;4944719;28;20114;-84
2022/11/06 00:15:05;;;;;;;0.60;0.60;;;9.90;99.90;;;;;;4968385;28;21235;-82
2022/11/06 00:17:31;;;;;;;0.60;0.60;;;9.90;99.90;;;;;;4952039;28;20491;-82
2022/11/06 00:19:57;;;;;;;0.60;0.60;;;9.90;99.90;;;;;;4957382;28;20855;-84
2022/11/06 00:22:22;;;;;;;0.60;0.60;;;9.80;99.90;;;;;;4959162;28;20482;-81
2022/11/06 00:24:48;;;;;;;0.60;0.60;;;9.90;99.90;;;;;;4974510;28;20069;-87
2022/11/06 00:27:15;;;;;;;0.60;0.60;;;9.90;99.90;;;;;;4956478;28;20058;-87
2022/11/06 00:29:41;;;;;;;0.60;0.60;;;9.80;99.90;;;;;;4982409;28;20071;-85
2022/11/06 00:32:07;;;;;;;0.60;0.60;;;9.80;99.90;;;;;;4978335;28;20521;-81
2022/11/06 00:34:34;;;;;;;0.60;0.60;;;9.80;99.90;;;;;;4969531;28;20048;-79
2022/11/06 00:36:59;;;;;;;0.60;0.60;;;9.80;99.90;;;;;;4968033;28;20185;-84
2022/11/06 00:39:25;;;;;;;0.60;0.60;;;9.80;99.90;;;;;;4955884;28;20063;-82
2022/11/06 00:41:51;;;;;;;0.60;0.60;;;9.80;99.90;;;;;;4958392;28;20048;-84
2022/11/06 00:44:17;;;;;;;0.60;0.60;;;9.80;99.90;;;;;;4971205;28;20131;-81
2022/11/06 00:46:42;;;;;;;0.60;0.60;;;9.90;99.90;;;;;;4998972;28;20791;-84
2022/11/06 00:49:08;;;;;;;0.60;0.60;;;9.80;99.90;;;;;;4962209;28;20049;-81
2022/11/06 00:51:38;;;;;;;0.60;0.60;;;9.90;99.90;;;;;;4961255;28;20044;-84
2022/11/06 00:54:06;;;;;;;0.60;0.60;;;9.90;99.90;;;;;;4988137;28;20614;-81
2022/11/06 00:56:33;;;;;;;0.60;0.60;;;9.90;99.90;;;;;;4968253;28;20689;-86
2022/11/06 00:59:00;;;;;;;0.60;0.60;;;9.90;99.90;;;;;;4974958;28;20154;-83
2022/11/06 01:01:32;;;;;;;0.60;0.60;;;9.90;99.90;;;;;;4976565;28;22429;-86
2022/11/06 01:04:02;;;;;;;0.60;0.60;;;9.90;99.90;;;;;;4982692;28;20102;-83
2022/11/06 01:06:31;;;;;;;0.60;0.60;;;9.90;99.90;;;;;;4976284;28;20737;-84
2022/11/06 01:08:57;;;;;;;0.60;0.60;;;9.90;99.90;;;;;;4973413;28;20075;-82
2022/11/06 01:11:27;;;;;;;0.60;0.60;;;9.90;99.90;;;;;;4975079;28;20140;-86
2022/11/06 01:13:55;;;;;;;0.55;0.55;;;9.90;99.90;;;;;;4982647;28;20037;-82
2022/11/06 01:16:22;;;;;;;0.60;0.60;;;9.80;99.90;;;;;;4977680;28;20057;-87
2022/11/06 01:18:49;;;;;;;0.60;0.60;;;9.80;99.90;;;;;;4976942;28;20048;-85
2022/11/06 01:21:30;;;;;;;0.60;0.60;;;9.80;99.90;;;;;;4972063;28;20513;-85
2022/11/06 01:24:01;;;;;;;0.60;0.60;;;9.80;99.90;;;;;;4971607;28;20079;-83
2022/11/06 01:26:28;;;;;;;0.57;0.57;;;9.80;99.90;;;;;;4954494;28;20053;-91
2022/11/06 01:28:56;;;;;;;0.60;0.60;;;9.80;99.90;;;;;;4943839;28;20410;-81
2022/11/06 01:31:24;;;;;;;0.55;0.55;;;9.70;99.90;;;;;;4940247;28;20475;-83
2022/11/06 01:33:50;;;;;;;0.52;0.52;;;9.70;99.90;;;;;;4934079;28;20151;-84
2022/11/06 01:36:19;;;;;;;0.60;0.60;;;9.70;99.90;;;;;;4941050;28;20102;-84
2022/11/06 01:38:47;;;;;;;0.55;0.55;;;9.70;99.90;;;;;;4937237;28;20056;-81
2022/11/06 01:41:24;;;;;;;0.60;0.60;;;9.70;99.90;;;;;;4938672;28;20044;-79
2022/11/06 01:43:53;;;;;;;0.60;0.60;;;9.80;99.90;;;;;;4942501;28;20381;-82
2022/11/06 01:46:21;;;;;;;0.60;0.60;;;9.70;99.90;;;;;;4925564;28;20064;-83
2022/11/06 01:49:15;;;;;;;0.60;0.60;;;9.70;99.90;;;;;;4935839;28;20885;-86
2022/11/06 01:51:55;;;;;;;0.60;0.60;;;9.60;99.90;;;;;;4935586;28;20377;-84
2022/11/06 01:54:24;;;;;;;0.60;0.60;;;9.60;99.90;;;;;;4922215;28;20767;-83
2022/11/06 01:56:53;;;;;;;0.60;0.60;;;9.60;99.90;;;;;;4940909;28;20085;-84
2022/11/06 01:59:23;;;;;;;0.60;0.60;;;9.60;99.90;;;;;;4939343;28;20053;-83
2022/11/06 02:01:50;;;;;;;0.60;0.60;;;9.60;99.90;;;;;;4940758;28;20416;-85
2022/11/06 02:04:22;;;;;;;0.60;0.60;;;9.50;99.90;;;;;;4934284;28;20502;-83
2022/11/06 02:06:48;;;;;;;0.60;0.60;;;9.60;99.90;;;;;;4953797;28;20488;-82
2022/11/06 02:09:15;;;;;;;0.60;0.60;;;9.50;99.90;;;;;;4943225;28;20608;-83
2022/11/06 02:11:42;;;;;;;0.57;0.57;;;9.50;99.90;;;;;;4939493;28;20211;-83
2022/11/06 02:14:19;;;;;;;0.50;0.50;;;9.60;99.90;;;;;;4927481;28;20117;-88
2022/11/06 02:16:54;;;;;;;0.60;0.60;;;9.60;99.90;;;;;;4943500;28;20044;-80
2022/11/06 02:19:28;;;;;;;0.60;0.60;;;9.60;99.90;;;;;;4937045;28;20503;-81
2022/11/06 02:22:03;;;;;;;;;;;9.50;99.90;;;;;;4935136;28;20064;-85
2022/11/06 02:25:21;;;;;;;0.60;0.60;;;9.60;99.90;;;;;;4946824;28;20496;-81
2022/11/06 02:27:57;;;;;;;0.60;0.60;;;9.60;99.90;;;;;;4894038;28;20061;-81
2022/11/06 02:30:23;;;;;;;0.60;0.60;;;9.60;99.90;;;;;;4888075;28;20124;-82
2022/11/06 02:32:58;;;;;;;0.60;0.60;;;9.60;99.90;;;;;;4920683;28;20071;-83
2022/11/06 02:35:48;;;;;;;0.60;0.60;;;9.50;99.90;;;;;;4936162;28;20126;-83
2022/11/06 02:38:29;;;;;;;0.60;0.60;;;9.60;99.90;;;;;;4967902;28;20929;-83
2022/11/06 02:41:01;;;;;;;0.60;0.60;;;9.50;99.90;;;;;;4959562;28;20458;-85
2022/11/06 02:43:38;;;;;;;0.60;0.60;;;9.50;99.90;;;;;;4967177;28;20072;-81
2022/11/06 02:46:30;;;;;;;0.60;0.60;;;9.50;99.90;;;;;;4961086;28;20307;-81
2022/11/06 02:49:01;;;;;;;0.60;0.60;;;9.40;99.90;;;;;;4957769;28;20660;-82
2022/11/06 02:51:30;;;;;;;0.60;0.60;;;9.50;99.90;;;;;;4943829;28;20533;-83
2022/11/06 02:54:02;;;;;;;0.60;0.60;;;9.40;99.90;;;;;;4981747;28;20049;-80
2022/11/06 02:56:33;;;;;;;0.60;0.60;;;9.30;99.90;;;;;;4966770;28;22484;-81
2022/11/06 02:59:08;;;;;;;0.60;0.60;;;9.40;99.90;;;;;;4966942;28;20070;-83
2022/11/06 03:01:51;;;;;;;0.60;0.60;;;9.30;99.90;;;;;;4964320;28;20053;-87
2022/11/06 03:04:46;;;;;;;0.60;0.60;;;9.40;99.90;;;;;;4943699;28;20060;-84
2022/11/06 03:07:47;;;;;;;0.60;0.60;;;9.30;99.90;;;;;;4926029;28;20088;-89
2022/11/06 03:10:13;;;;;;;0.60;0.60;;;9.40;99.90;;;;;;4971350;28;20441;-80
2022/11/06 03:13:13;;;;;;;0.60;0.60;;;9.40;99.90;;;;;;4941157;28;20868;-83
2022/11/06 03:16:03;;;;;;;0.55;0.55;;;9.50;99.90;;;;;;4969919;28;20053;-83
2022/11/06 03:19:00;;;;;;;0.60;0.60;;;9.40;99.90;;;;;;4964530;28;20216;-81
2022/11/06 03:21:37;;;;;;;0.55;0.55;;;9.40;99.90;;;;;;4966978;28;20099;-84
2022/11/06 03:24:13;;;;;;;0.63;0.63;;;9.50;99.90;;;;;;4950705;28;20039;-85
2022/11/06 03:26:45;;;;;;;0.60;0.60;;;9.50;99.90;;;;;;4966779;28;20645;-80
2022/11/06 03:29:32;;;;;;;0.60;0.60;;;9.50;99.90;;;;;;4961597;28;20416;-85
2022/11/06 03:32:14;;;;;;;0.60;0.60;;;9.50;99.90;;;;;;4960666;28;21038;-84
2022/11/06 03:35:05;;;;;;;0.60;0.60;;;9.50;99.90;;;;;;4972555;28;20044;-84
2022/11/06 03:37:41;;;;;;;0.60;0.60;;;9.60;99.90;;;;;;4965574;28;20840;-83
2022/11/06 03:40:11;;;;;;;0.60;0.60;;;9.50;99.90;;;;;;4984856;28;20070;-85
2022/11/06 03:42:41;;;;;;;0.60;0.60;;;9.60;99.90;;;;;;4972056;28;20052;-84
2022/11/06 03:45:14;;;;;;;0.60;0.60;;;9.60;99.90;;;;;;4961895;28;20056;-79
2022/11/06 03:48:20;;;;;;;0.60;0.60;;;9.60;99.90;;;;;;4981111;28;20555;-83
2022/11/06 03:50:49;;;;;;;0.60;0.60;;;9.60;99.90;;;;;;4942746;28;20153;-82
2022/11/06 03:53:22;;;;;;;0.60;0.60;;;9.60;99.90;;;;;;4964678;28;20047;-85
2022/11/06 03:55:53;;;;;;;0.60;0.60;;;9.60;99.90;;;;;;4960808;28;20049;-84
2022/11/06 03:58:28;;;;;;;0.60;0.60;;;9.60;99.90;;;;;;4950247;28;20160;-85
2022/11/06 04:00:57;;;;;;;0.60;0.60;;;9.60;99.90;;;;;;4958464;28;20145;-83
2022/11/06 04:03:29;;;;;;;0.60;0.60;;;9.70;99.90;;;;;;4944845;28;20872;-86
2022/11/06 04:06:25;;;;;;;0.60;0.60;;;9.70;99.90;;;;;;4949244;28;20166;-82
2022/11/06 04:14:28;;;;;;;0.60;0.60;;;9.60;99.90;;;;;;4969598;28;21102;-82
2022/11/06 04:16:58;;;;;;;0.60;0.60;;;9.60;99.90;;;;;;4970990;28;20044;-83
2022/11/06 04:19:24;;;;;;;0.60;0.60;;;9.70;99.90;;;;;;4946809;28;20052;-81
2022/11/06 04:22:35;;;;;;;0.60;0.60;;;9.70;99.90;;;;;;4969354;28;20047;-83
2022/11/06 04:28:25;;;;;;;0.60;0.60;;;9.70;99.90;;;;;;4960665;28;20295;-80
2022/11/06 04:30:59;;;;;;;0.60;0.60;;;9.80;99.90;;;;;;4968156;28;20052;-85
2022/11/06 04:33:29;;;;;;;;;;;9.70;99.90;;;;;;4977449;28;20131;-83
2022/11/06 04:35:55;;;;;;;0.60;0.60;;;9.80;99.90;;;;;;4961578;28;20095;-85
2022/11/06 04:38:54;;;;;;;0.60;0.60;;;9.80;99.90;;;;;;4966402;28;20129;-87
2022/11/06 04:41:48;;;;;;;0.60;0.60;;;9.80;99.90;;;;;;4936657;28;20515;-84
2022/11/06 04:44:25;;;;;;;0.60;0.60;;;9.80;99.90;;;;;;4963458;28;20409;-83
2022/11/06 04:46:58;;;;;;;0.60;0.60;;;9.80;99.90;;;;;;4962517;28;20442;-90
2022/11/06 04:49:27;;;;;;;0.60;0.60;;;9.80;99.90;;;;;;4965451;28;20045;-85
2022/11/06 04:51:53;;;;;;;0.60;0.60;;;9.80;99.90;;;;;;4959713;28;20052;-82
2022/11/06 04:54:22;;;;;;;0.50;0.50;;;9.80;99.90;;;;;;4967493;28;20049;-85
2022/11/06 04:56:49;;;;;;;0.60;0.60;;;9.90;99.90;;;;;;4975333;28;20048;-81
2022/11/06 04:59:16;;;;;;;0.60;0.60;;;9.90;99.90;;;;;;4950073;28;20044;-84
2022/11/06 05:01:42;;;;;;;0.60;0.60;;;9.70;99.90;;;;;;4963088;28;20572;-82
2022/11/06 05:04:10;;;;;;;0.60;0.60;;;9.80;99.90;;;;;;4961463;28;20498;-83
2022/11/06 05:06:35;;;;;;;0.60;0.60;;;9.70;99.90;;;;;;4969246;28;20685;-83
2022/11/06 05:09:01;;;;;;;0.60;0.60;;;9.70;99.90;;;;;;4977589;28;20052;-82
2022/11/06 05:11:27;;;;;;;0.60;0.60;;;9.70;99.90;;;;;;4938749;28;20462;-84
2022/11/06 05:13:53;;;;;;;0.63;0.63;;;9.70;99.90;;;;;;4961650;28;20443;-84
2022/11/06 05:16:19;;;;;;;0.60;0.60;;;9.70;99.90;;;;;;4964476;28;20071;-84
2022/11/06 05:18:45;;;;;;;0.60;0.60;;;9.70;99.90;;;;;;4965802;28;20139;-81
2022/11/06 05:23:55;;;;;;;0.60;0.60;;;9.70;99.90;;;;;;4981849;28;20056;-84
2022/11/06 05:26:21;;;;;;;0.60;0.60;;;9.70;99.90;;;;;;4964158;28;20105;-83
2022/11/06 05:28:46;;;;;;;0.60;0.60;;;9.70;99.90;;;;;;4955800;28;20181;-82
2022/11/06 05:31:12;;;;;;;0.60;0.60;;;9.80;99.90;;;;;;4957546;28;20044;-84
2022/11/06 05:33:38;;;;;;;0.60;0.60;;;9.70;99.90;;;;;;4940068;28;20053;-84
2022/11/06 05:36:05;;;;;;;0.60;0.60;;;9.70;99.90;;;;;;4951534;28;20133;-83
2022/11/06 05:38:31;;;;;;;0.60;0.60;;;9.80;99.90;;;;;;4957542;28;20087;-83
2022/11/06 05:40:57;;;;;;;0.60;0.60;;;9.80;99.90;;;;;;4965717;28;20163;-85
2022/11/06 05:43:23;;;;;;;0.60;0.60;;;9.70;99.90;;;;;;4944304;28;20117;-83
2022/11/06 05:45:49;;;;;;;0.60;0.60;;;9.70;99.90;;;;;;4959464;28;20049;-81
2022/11/06 05:48:15;;;;;;;0.57;0.57;;;9.70;99.90;;;;;;4959365;28;20048;-82
2022/11/06 05:50:41;;;;;;;0.60;0.60;;;9.70;99.90;;;;;;4962532;28;20359;-84
2022/11/06 05:53:06;;;;;;;0.60;0.60;;;9.70;99.90;;;;;;4957536;28;20047;-86
2022/11/06 05:55:32;;;;;;;0.57;0.57;;;9.70;99.90;;;;;;4962472;28;20090;-86
2022/11/06 05:57:58;;;;;;;0.60;0.60;;;9.70;99.90;;;;;;4959481;28;20049;-82
2022/11/06 06:00:24;;;;;;;0.60;0.60;;;9.80;99.90;;;;;;4978609;28;20129;-87
2022/11/06 06:02:50;;;;;;;0.60;0.60;;;9.80;99.90;;;;;;4957943;28;20040;-84
2022/11/06 06:05:16;;;;;;;0.60;0.60;;;9.80;99.90;;;;;;4954141;28;20079;-84
2022/11/06 06:07:42;;;;;;;0.60;0.60;;;9.80;99.90;;;;;;4963610;28;20078;-84
2022/11/06 06:10:08;;;;;;;0.50;0.50;;;9.80;99.90;;;;;;4956636;28;20086;-84
2022/11/06 06:12:34;;;;;;;0.52;0.52;;;9.80;99.90;;;;;;4946539;28;20040;-81
2022/11/06 06:15:00;;;;;;;0.55;0.55;;;9.90;99.90;;;;;;4949856;28;20298;-85
2022/11/06 06:17:26;;;;;;;0.60;0.60;;;9.90;99.90;;;;;;4961290;28;20778;-80
2022/11/06 06:19:52;;;;;;;0.60;0.60;;;9.90;99.90;;;;;;4979671;28;20394;-81
2022/11/06 06:22:18;;;;;;;0.60;0.60;;;9.90;99.90;;;;;;4962282;28;20452;-86
2022/11/06 06:24:44;;;;;;;0.60;0.60;;;9.90;99.90;;;;;;4945685;28;20512;-83
2022/11/06 06:27:09;;;;;;;0.60;0.60;;;9.90;99.90;;;;;;4957508;28;20977;-82
2022/11/06 06:29:35;;;;;;;0.60;0.60;;;9.90;99.90;;;;;;4966091;28;20462;-84
2022/11/06 06:32:02;;;;;;;0.60;0.60;;;10.00;99.90;;;;;;4935898;28;20064;-85
2022/11/06 06:34:28;;;;;;;0.50;0.50;;;10.00;99.90;;;;;;4960853;28;20826;-81
2022/11/06 06:36:54;;;;;;;0.60;0.60;;;10.00;99.90;;;;;;4934924;28;20059;-81
2022/11/06 06:39:20;;;;;;;0.60;0.60;;;10.00;99.90;;;;;;4969504;28;20158;-83
2022/11/06 06:41:47;;;;;;;0.60;0.60;;;10.10;99.90;;;;;;4957550;28;20051;-81
2022/11/06 06:44:16;;;;;;;0.50;0.50;;;10.00;99.90;;;;;;4958716;28;20515;-82
2022/11/06 06:46:42;;;;;;;0.60;0.60;;;10.00;99.90;;;;;;4986675;28;20040;-82
2022/11/06 06:49:08;;;;;;;0.50;0.50;;;10.00;99.90;;;;;;4944786;28;20512;-79
2022/11/06 06:51:34;;;;;;;0.60;0.60;;;10.10;99.90;;;;;;4962463;28;20647;-80
2022/11/06 06:53:59;;;;;;;0.60;0.60;;;10.10;99.90;;;;;;4927929;28;20051;-81
2022/11/06 06:56:28;;;;;;;0.50;0.50;;;10.10;99.90;;;;;;4952246;28;20051;-88
2022/11/06 06:58:54;;;;;;;0.60;0.60;;;10.10;99.90;;;;;;4988966;28;20047;-80
2022/11/06 07:01:20;;;;;;;0.57;0.57;;;10.10;99.90;;;;;;4965605;28;20621;-82
2022/11/06 07:03:46;;;;;;;0.55;0.55;;;10.10;99.90;;;;;;4953210;28;20847;-81
2022/11/06 07:06:11;;;;;;;0.60;0.60;;;10.20;99.90;;;;;;4965273;28;20052;-83
2022/11/06 07:08:37;;;;;;;0.60;0.60;;;10.20;99.90;;;;;;4958950;28;20542;-82
2022/11/06 07:11:06;;;;;;;0.60;0.60;;;10.30;99.90;;;;;;4963085;28;20048;-81
2022/11/06 07:13:33;;;;;;;0.60;0.60;;;10.30;99.90;;;;;;4990523;28;20040;-81
2022/11/06 07:16:01;;;;;;;0.52;0.52;;;10.30;99.90;;;;;;4946729;28;20974;-82
2022/11/06 07:18:27;;;;;;;0.60;0.60;;;10.30;99.90;;;;;;4961211;28;20131;-81
2022/11/06 07:20:53;;;;;;;0.60;0.60;;;10.30;99.90;;;;;;4967207;28;20494;-82
2022/11/06 07:23:19;;;;;;;0.50;0.50;;;10.30;99.90;;;;;;4965805;28;20041;-84
2022/11/06 07:25:51;;;;;;;0.50;0.50;;;10.40;99.90;;;;;;4965797;28;20415;-82
2022/11/06 07:28:17;;;;;;;0.60;0.60;;;10.40;99.90;;;;;;4968576;28;20642;-82
2022/11/06 07:30:43;;;;;;;0.60;0.60;;;10.40;99.90;;;;;;4958800;28;20052;-81
2022/11/06 07:33:08;;;;;;;0.60;0.60;;;10.40;99.90;;;;;;4979367;28;20407;-83
2022/11/06 07:35:34;;;;;;;0.60;0.60;;;10.40;99.90;;;;;;4927677;28;20051;-81
2022/11/06 07:38:04;;;;;;;0.50;0.50;;;10.40;99.90;;;;;;4958173;28;20172;-86
2022/11/06 07:40:34;;;;;;;0.60;0.60;;;10.40;99.90;;;;;;4939623;28;20044;-81
2022/11/06 07:43:07;;;;;;;0.50;0.50;;;10.40;99.90;;;;;;4965955;28;20045;-83
2022/11/06 07:45:33;;;;;;;0.52;0.52;;;10.40;99.90;;;;;;4965703;28;20569;-81
2022/11/06 07:47:59;;;;;;;0.60;0.60;;;10.40;99.90;;;;;;4933987;28;20056;-84
2022/11/06 07:50:25;;;;;;;0.60;0.60;;;10.50;99.90;;;;;;4934588;28;20044;-84
2022/11/06 07:52:51;;;;;;;0.57;0.57;;;10.60;99.90;;;;;;4947604;28;20912;-83
2022/11/06 07:55:17;;;;;;;0.57;0.57;;;10.60;99.90;;;;;;4986296;28;20113;-83
2022/11/06 07:57:43;;;;;;;0.60;0.60;;;10.60;99.90;;;;;;4946469;28;20639;-81
2022/11/06 08:00:09;;;;;;;0.60;0.60;;;10.60;99.90;;;;;;4968726;28;20442;-80
2022/11/06 08:02:35;;;;;;;0.60;0.60;;;10.60;99.90;;;;;;4960234;28;20045;-81
2022/11/06 08:05:03;;;;;;;0.55;0.55;;;10.70;99.90;;;;;;4951359;28;20063;-83
2022/11/06 08:07:28;;;;;;;0.50;0.50;;;10.70;99.90;;;;;;4965459;28;20051;-85
2022/11/06 08:09:54;;;;;;;0.60;0.60;;;10.60;99.90;;;;;;4942970;28;20049;-81
2022/11/06 08:12:20;;;;;;;0.50;0.50;;;10.60;99.90;;;;;;4980757;28;20059;-84
2022/11/06 08:14:46;;;;;;;0.52;0.52;;;10.60;99.90;;;;;;4957884;28;20379;-83
2022/11/06 08:17:11;;;;;;;0.60;0.60;;;10.60;99.90;;;;;;4965127;28;20451;-83
2022/11/06 08:19:37;;;;;;;0.55;0.55;;;10.70;99.90;;;;;;4940911;28;20053;-84
2022/11/06 08:22:03;;;;;;;0.50;0.50;;;10.80;99.90;;;;;;4953064;28;20044;-81
2022/11/06 08:24:29;;;;;;;0.50;0.50;;;10.80;99.90;;;;;;4962119;28;20052;-82
2022/11/06 08:26:54;;;;;;;0.60;0.60;;;10.80;99.90;;;;;;4937547;28;20133;-82
2022/11/06 08:29:20;;;;;;;0.60;0.60;;;10.80;99.90;;;;;;4941066;28;20418;-80
2022/11/06 08:31:46;;;;;;;0.50;0.50;;;10.80;99.90;;;;;;4926817;28;20479;-83
2022/11/06 08:34:11;;;;;;;0.60;0.60;;;10.90;99.90;;;;;;4928337;28;20064;-80
2022/11/06 08:36:45;;;;;;;0.60;0.60;;;11.00;99.90;;;;;;4918345;28;20535;-80
2022/11/06 08:39:13;;;;;;;0.60;0.60;;;11.10;99.90;;;;;;4936752;28;20055;-83
2022/11/06 08:41:39;;;;;;;0.60;0.60;;;11.20;99.90;;;;;;4920641;28;20135;-81
2022/11/06 08:44:06;;;;;;;0.60;0.60;;;11.20;99.90;;;;;;4922465;28;20037;-83
2022/11/06 08:46:31;;;;;;;0.60;0.60;;;11.20;99.90;;;;;;4948931;28;20878;-81
2022/11/06 08:48:57;;;;;;;0.60;0.60;;;11.30;99.90;;;;;;4925201;28;20053;-85
2022/11/06 08:51:23;;;;;;;0.50;0.50;;;11.30;99.90;;;;;;4942363;28;20749;-81
2022/11/06 08:53:49;;;;;;;0.50;0.50;;;11.40;99.90;;;;;;4926183;28;20327;-82
2022/11/06 08:56:15;;;;;;;0.50;0.50;;;11.40;99.90;;;;;;4955238;28;20114;-80
2022/11/06 08:58:41;;;;;;;0.52;0.52;;;11.50;99.90;;;;;;4937920;28;20088;-82
2022/11/06 09:01:07;;;;;;;0.55;0.55;;;11.50;99.90;;;;;;4928481;28;21129;-83
2022/11/06 09:03:33;;;;;;;0.55;0.55;;;11.50;99.90;;;;;;4933354;28;20049;-81
2022/11/06 09:06:04;;;;;;;0.50;0.50;;;11.60;99.90;;;;;;4936233;28;20079;-84
2022/11/06 09:08:30;;;;;;;0.60;0.60;;;11.60;99.90;;;;;;4926078;28;20053;-80
2022/11/06 09:10:56;;;;;;;0.50;0.50;;;11.70;99.90;;;;;;4937749;28;20049;-84
2022/11/06 09:13:24;;;;;;;0.50;0.50;;;11.70;99.90;;;;;;4936510;28;20114;-80
2022/11/06 09:15:49;;;;;;;0.50;0.50;;;11.70;99.90;;;;;;4959894;28;20045;-80
2022/11/06 09:18:15;;;;;;;0.50;0.50;;;11.60;99.90;;;;;;4954131;28;20049;-78
2022/11/06 09:20:41;;;;;;;0.50;0.50;;;11.80;99.90;;;;;;4936796;28;20048;-83
2022/11/06 09:23:09;;;;;;;0.50;0.50;;;11.80;99.90;;;;;;4931900;28;20689;-82
2022/11/06 09:25:35;;;;;;;0.50;0.50;;;11.80;99.90;;;;;;4931680;28;20553;-85
2022/11/06 09:28:01;;;;;;;0.50;0.50;;;11.90;99.90;;;;;;4966656;28;20048;-84
2022/11/06 09:30:30;;;;;;;0.50;0.50;;;11.90;99.90;;;;;;4932598;28;20199;-84
2022/11/06 09:33:01;;;;;;;0.50;0.50;;;12.00;99.90;;;;;;4963127;28;20047;-84
2022/11/06 09:35:29;;;;;;;0.52;0.52;;;11.90;99.90;;;;;;4984512;28;20244;-84
2022/11/06 09:38:04;;;;;;;0.50;0.50;;;11.90;99.90;;;;;;4957607;28;20054;-82
2022/11/06 09:40:52;;;;;;;0.50;0.50;;;11.90;99.90;;;;;;4960885;28;20475;-83
2022/11/06 09:43:42;;;;;;;0.50;0.50;;;12.00;99.90;;;;;;4960094;28;20557;-84
2022/11/06 09:46:44;;;;;;;0.50;0.50;;;11.90;99.90;;;;;;4976741;28;20048;-80
2022/11/06 09:49:24;;;;;;;0.52;0.52;;;12.00;99.90;;;;;;4958115;28;20147;-85
2022/11/06 09:52:07;;;;;;;0.60;0.60;;;12.10;99.90;;;;;;4965516;28;20538;-80
2022/11/06 09:54:42;;;;;;;0.50;0.50;;;12.20;99.90;;;;;;4986956;28;20300;-82
2022/11/06 09:57:20;;;;;;;0.50;0.50;;;12.20;99.90;;;;;;4963207;28;20051;-81
2022/11/06 09:59:47;;;;;;;0.50;0.50;;;12.20;99.90;;;;;;4952636;28;20056;-81
2022/11/06 10:02:35;;;;;;;0.50;0.50;;;12.30;99.90;;;;;;4963389;28;20059;-82
2022/11/06 10:05:09;;;;;;;0.50;0.50;;;12.40;99.90;;;;;;4980841;28;20636;-81
2022/11/06 10:07:38;;;;;;;0.50;0.50;;;12.50;99.90;;;;;;4969590;28;20047;-86
2022/11/06 10:10:10;;;;;;;0.50;0.50;;;12.70;99.90;;;;;;4964084;28;20052;-84
2022/11/06 10:12:57;;;;;;;0.50;0.50;;;12.80;99.90;;;;;;4963202;28;20368;-86
2022/11/06 10:15:32;;;;;;;0.50;0.50;;;12.90;99.90;;;;;;4989327;28;20286;-80
2022/11/06 10:18:10;;;;;;;0.60;0.60;;;12.80;99.90;;;;;;4970438;28;20054;-80
2022/11/06 10:20:52;;;;;;;0.50;0.50;;;12.80;99.90;;;;;;4965464;28;20237;-85
2022/11/06 10:23:44;;;;;;;0.50;0.50;;;12.90;99.90;;;;;;4983605;28;20427;-80
2022/11/06 10:26:19;;;;;;;0.50;0.50;;;12.80;99.90;;;;;;4986862;28;20056;-83
2022/11/06 10:29:06;;;;;;;0.50;0.50;;;12.80;99.90;;;;;;4986294;28;20461;-83
2022/11/06 10:31:54;;;;;;;0.50;0.50;;;12.80;99.90;;;;;;4968407;28;20043;-83
2022/11/06 10:34:44;;;;;;;0.50;0.50;;;13.00;99.90;;;;;;4961128;28;20530;-80
2022/11/06 10:37:28;;;;;;;0.50;0.50;;;13.10;99.90;;;;;;4988007;28;21132;-79
2022/11/06 10:39:57;;;;;;;0.50;0.50;;;13.10;99.90;;;;;;4962571;28;20119;-82
2022/11/06 10:42:30;;;;;;;0.50;0.50;;;13.20;99.90;;;;;;4971653;28;20553;-86
2022/11/06 10:45:01;;;;;;;0.50;0.50;;;13.30;99.90;;;;;;4971092;28;20059;-81
2022/11/06 10:47:46;;;;;;;0.50;0.50;;;13.30;99.90;;;;;;4967527;28;20515;-85
2022/11/06 10:50:15;;;;;;;0.50;0.50;;;13.50;99.90;;;;;;4967050;28;20151;-86
2022/11/06 10:52:46;;;;;;;0.50;0.50;;;13.60;99.90;;;;;;4960668;28;20360;-80
2022/11/06 10:55:33;;;;;;;0.50;0.50;;;13.60;99.90;;;;;;4980892;28;20526;-84
2022/11/06 10:58:05;;;;;;;0.50;0.50;;;13.60;99.90;;;;;;4967433;28;20105;-84
2022/11/06 11:00:32;;;;;;;0.50;0.50;;;13.80;99.90;;;;;;4973031;28;20444;-84
2022/11/06 11:03:00;;;;;;;0.50;0.50;;;14.10;99.90;;;;;;4985341;28;20507;-82
2022/11/06 11:05:38;;;;;;;0.50;0.50;;;14.20;99.90;;;;;;4986332;28;20488;-81
2022/11/06 11:08:04;;;;;;;0.50;0.50;;;14.50;99.90;;;;;;4995258;28;20076;-89
2022/11/06 11:10:35;;;;;;;0.50;0.50;;;14.50;99.90;;;;;;4973819;28;20059;-81
2022/11/06 11:13:03;;;;;;;0.50;0.50;;;14.60;99.90;;;;;;4964934;28;21034;-79
2022/11/06 11:15:48;;;;;;;0.50;0.50;;;14.50;99.90;;;;;;4993088;28;20044;-83
2022/11/06 11:18:22;;;;;;;0.50;0.50;;;14.50;99.90;;;;;;4989378;28;20063;-86
2022/11/06 11:21:02;;;;;;;0.50;0.50;;;14.30;99.90;;;;;;5005525;28;20481;-81
2022/11/06 11:23:28;;;;;;;0.50;0.50;;;14.00;99.90;;;;;;4986958;28;20760;-83
2022/11/06 11:25:56;;;;;;;0.43;0.43;;;14.20;99.90;;;;;;4986724;28;20068;-85
2022/11/06 11:28:33;;;;;;;0.50;0.50;;;14.40;99.90;;;;;;4984939;28;20079;-85
2022/11/06 11:31:15;;;;;;;0.50;0.50;;;14.30;99.90;;;;;;4980785;28;20355;-83
2022/11/06 11:33:50;;;;;;;0.50;0.50;;;14.30;99.90;;;;;;4967115;28;20056;-81
2022/11/06 11:36:16;;;;;;;0.50;0.50;;;14.10;99.90;;;;;;4961824;28;20750;-80
2022/11/06 11:38:42;;;;;;;0.50;0.50;;;14.00;99.90;;;;;;4983420;28;20052;-83
2022/11/06 11:41:26;;;;;;;0.50;0.50;;;13.90;99.90;;;;;;5004928;28;20241;-85
2022/11/06 11:44:02;;;;;;;0.50;0.50;;;13.70;99.90;;;;;;4962527;28;21038;-82
2022/11/06 11:46:28;;;;;;;0.50;0.50;;;13.60;99.90;;;;;;4988873;28;20036;-87
2022/11/06 11:48:56;;;;;;;0.47;0.47;;;13.60;99.90;;;;;;4992026;28;20040;-83
2022/11/06 11:51:34;;;;;;;0.50;0.50;;;13.60;99.90;;;;;;4979363;28;20131;-82
2022/11/06 11:54:15;;;;;;;0.50;0.50;;;13.40;99.90;;;;;;4988353;28;20590;-83
2022/11/06 11:56:56;;;;;;;0.50;0.50;;;13.40;99.90;;;;;;4987080;28;20152;-84
2022/11/06 11:59:44;;;;;;;0.57;0.57;;;13.40;99.90;;;;;;4982033;28;20059;-85
2022/11/06 12:02:21;;;;;;;0.50;0.50;;;13.40;99.90;;;;;;5007114;28;20557;-83
2022/11/06 12:04:53;;;;;;;0.47;0.47;;;13.40;99.90;;;;;;4973895;28;20567;-81
2022/11/06 12:07:26;;;;;;;0.50;0.50;;;13.40;99.90;;;;;;4982730;28;20643;-82
2022/11/06 12:09:52;;;;;;;0.50;0.50;;;13.50;99.90;;;;;;4990464;28;20135;-85
2022/11/06 12:12:25;;;;;;;0.50;0.50;;;13.60;99.90;;;;;;4982334;28;20049;-86
2022/11/06 12:15:20;;;;;;;0.60;0.60;;;13.70;99.90;;;;;;5008061;28;20531;-82
2022/11/06 12:18:00;;;;;;;0.50;0.50;;;13.80;99.90;;;;;;5020746;28;20696;-82
2022/11/06 12:20:51;;;;;;;0.50;0.50;;;13.80;99.90;;;;;;5009138;28;20389;-82
2022/11/06 12:23:35;;;;;;;0.47;0.47;;;13.70;99.90;;;;;;4987105;28;20052;-81
2022/11/06 12:26:25;;;;;;;0.50;0.50;;;13.70;99.90;;;;;;5009805;28;20056;-84
2022/11/06 12:28:57;;;;;;;0.50;0.50;;;14.00;99.90;;;;;;5004934;28;20387;-83
2022/11/06 12:31:37;;;;;;;0.50;0.50;;;14.20;99.90;;;;;;5022782;28;20048;-81
2022/11/06 12:34:10;;;;;;;0.50;0.50;;;14.40;99.90;;;;;;5008683;28;20070;-84
2022/11/06 12:36:44;;;;;;;0.40;0.40;;;14.30;99.90;;;;;;5007237;28;20040;-85
2022/11/06 12:39:20;;;;;;;;;;;13.90;99.90;;;;;;5016837;28;21030;-82
2022/11/06 12:41:49;;;;;;;0.50;0.50;;;13.80;99.90;;;;;;5007080;28;19934;-82
2022/11/06 12:44:16;;;;;;;0.60;0.60;;;13.60;99.90;;;;;;5007412;28;20040;-81
2022/11/06 12:47:19;;;;;;;0.50;0.50;;;13.60;99.90;;;;;;5014634;28;20043;-83
2022/11/06 12:50:13;;;;;;;0.50;0.50;;;13.50;99.90;;;;;;5028560;28;20449;-81
2022/11/06 12:53:08;;;;;;;0.50;0.50;;;13.50;99.90;;;;;;5004043;28;20131;-81
2022/11/06 12:55:39;;;;;;;0.50;0.50;;;13.50;99.90;;;;;;5005640;28;20518;-91
2022/11/06 12:58:40;;;;;;;0.50;0.50;;;13.60;99.90;;;;;;5004584;28;20048;-86
2022/11/06 13:01:42;;;;;;;0.50;0.50;;;13.60;99.90;;;;;;5009308;28;20464;-83
2022/11/06 13:04:47;;;;;;;0.50;0.50;;;13.50;99.90;;;;;;4993684;28;20454;-82
2022/11/06 13:07:50;;;;;;;0.50;0.50;;;13.50;99.90;;;;;;4973743;28;20055;-80
2022/11/06 13:10:49;;;;;;;0.50;0.50;;;13.40;99.90;;;;;;4992998;28;20804;-80
2022/11/06 13:13:24;;;;;;;0.50;0.50;;;13.50;99.90;;;;;;4988161;28;20084;-81
2022/11/06 13:16:02;;;;;;;0.50;0.50;;;13.50;99.90;;;;;;4990556;28;20059;-81
2022/11/06 13:18:38;;;;;;;0.50;0.50;;;13.50;99.90;;;;;;4990964;28;20105;-85
2022/11/06 13:21:37;;;;;;;0.50;0.50;;;13.50;99.90;;;;;;4984377;28;20047;-82
2022/11/06 13:24:14;;;;;;;0.50;0.50;;;13.50;99.90;;;;;;4969470;28;21765;-80
2022/11/06 13:26:43;;;;;;;0.50;0.50;;;13.50;99.90;;;;;;4981442;28;20505;-87
2022/11/06 13:29:12;;;;;;;0.50;0.50;;;13.50;99.90;;;;;;4989390;28;20361;-84
2022/11/06 13:31:40;;;;;;;0.50;0.50;;;13.50;99.90;;;;;;4970731;28;20097;-80